sensor_id;sensor_type;location;lat;lon;timestamp;pressure;altitude;pressure_sealevel;temperature;humidity
44920;BME280;30655;53.094;6.072;2023-01-28T00:00:46;103101.47;;;2.89;82.34
44920;BME280;30655;53.094;6.072;2023-01-28T00:03:13;103083.63;;;2.82;82.80
44920;BME280;30655;53.094;6.072;2023-01-28T00:05:42;103189.19;;;3.52;82.65
44920;BME280;30655;53.094;6.072;2023-01-28T00:08:10;103181.16;;;3.52;82.75
44920;BME280;30655;53.094;6.072;2023-01-28T00:10:38;103179.50;;;3.51;82.59
44920;BME280;30655;53.094;6.072;2023-01-28T00:13:05;103173.31;;;3.51;82.90
44920;BME280;30655;53.094;6.072;2023-01-28T00:15:32;103172.47;;;3.50;82.05
44920;BME280;30655;53.094;6.072;2023-01-28T00:18:00;103165.09;;;3.44;82.99
44920;BME280;30655;53.094;6.072;2023-01-28T00:20:29;103183.16;;;3.50;82.78
44920;BME280;30655;53.094;6.072;2023-01-28T00:22:56;103061.06;;;2.76;81.89
44920;BME280;30655;53.094;6.072;2023-01-28T00:25:23;103001.81;;;2.31;82.37
44920;BME280;30655;53.094;6.072;2023-01-28T00:27:52;103022.91;;;2.42;82.20
44920;BME280;30655;53.094;6.072;2023-01-28T00:30:19;103168.75;;;3.27;81.71
44920;BME280;30655;53.094;6.072;2023-01-28T00:32:47;103043.78;;;2.54;82.13
44920;BME280;30655;53.094;6.072;2023-01-28T00:35:16;103170.78;;;3.33;81.60
44920;BME280;30655;53.094;6.072;2023-01-28T00:37:46;103147.00;;;3.22;81.70
44920;BME280;30655;53.094;6.072;2023-01-28T00:40:13;103021.56;;;2.46;82.18
44920;BME280;30655;53.094;6.072;2023-01-28T00:42:41;103161.56;;;3.35;81.77
44920;BME280;30655;53.094;6.072;2023-01-28T00:45:11;103101.53;;;2.97;81.71
44920;BME280;30655;53.094;6.072;2023-01-28T00:47:38;103156.06;;;3.37;81.75
44920;BME280;30655;53.094;6.072;2023-01-28T00:50:06;103046.00;;;2.67;81.43
44920;BME280;30655;53.094;6.072;2023-01-28T00:52:33;103155.22;;;3.36;81.79
44920;BME280;30655;53.094;6.072;2023-01-28T00:55:00;103161.41;;;3.37;81.63
44920;BME280;30655;53.094;6.072;2023-01-28T00:57:26;103066.75;;;2.73;81.79
44920;BME280;30655;53.094;6.072;2023-01-28T00:59:54;102980.47;;;2.31;81.77
44920;BME280;30655;53.094;6.072;2023-01-28T01:02:25;103139.00;;;3.30;81.75
44920;BME280;30655;53.094;6.072;2023-01-28T01:04:52;103039.69;;;2.68;82.18
44920;BME280;30655;53.094;6.072;2023-01-28T01:07:20;103160.78;;;3.43;82.62
44920;BME280;30655;53.094;6.072;2023-01-28T01:09:47;103047.19;;;2.73;82.63
44920;BME280;30655;53.094;6.072;2023-01-28T01:12:14;103157.06;;;3.44;82.42
44920;BME280;30655;53.094;6.072;2023-01-28T01:14:41;103135.50;;;3.29;82.12
44920;BME280;30655;53.094;6.072;2023-01-28T01:17:09;103164.44;;;3.42;81.84
44920;BME280;30655;53.094;6.072;2023-01-28T01:19:38;103166.13;;;3.43;82.13
44920;BME280;30655;53.094;6.072;2023-01-28T01:22:05;103167.78;;;3.44;82.42
44920;BME280;30655;53.094;6.072;2023-01-28T01:24:32;103120.28;;;3.14;81.58
44920;BME280;30655;53.094;6.072;2023-01-28T01:27:03;103064.75;;;2.83;82.30
44920;BME280;30655;53.094;6.072;2023-01-28T01:29:30;103159.06;;;3.34;81.78
44920;BME280;30655;53.094;6.072;2023-01-28T01:31:57;103182.47;;;3.40;81.92
44920;BME280;30655;53.094;6.072;2023-01-28T01:34:24;103164.75;;;3.39;81.72
44920;BME280;30655;53.094;6.072;2023-01-28T01:36:53;103167.59;;;3.37;81.52
44920;BME280;30655;53.094;6.072;2023-01-28T01:39:21;103163.25;;;3.36;81.90
44920;BME280;30655;53.094;6.072;2023-01-28T01:41:48;103166.09;;;3.35;81.66
44920;BME280;30655;53.094;6.072;2023-01-28T01:44:51;103169.75;;;3.34;81.71
44920;BME280;30655;53.094;6.072;2023-01-28T01:47:19;103152.03;;;3.25;82.03
44920;BME280;30655;53.094;6.072;2023-01-28T01:49:48;103165.06;;;3.28;81.51
44920;BME280;30655;53.094;6.072;2023-01-28T01:52:21;103174.75;;;3.29;81.37
44920;BME280;30655;53.094;6.072;2023-01-28T01:54:52;103175.78;;;3.28;81.91
44920;BME280;30655;53.094;6.072;2023-01-28T01:57:23;103183.78;;;3.28;82.04
44920;BME280;30655;53.094;6.072;2023-01-28T01:59:51;103186.63;;;3.26;81.86
44920;BME280;30655;53.094;6.072;2023-01-28T02:02:19;103183.09;;;3.18;82.78
44920;BME280;30655;53.094;6.072;2023-01-28T02:04:47;103184.63;;;3.28;82.53
44920;BME280;30655;53.094;6.072;2023-01-28T02:07:17;103150.13;;;3.09;82.49
44920;BME280;30655;53.094;6.072;2023-01-28T02:09:44;103179.28;;;3.28;82.44
44920;BME280;30655;53.094;6.072;2023-01-28T02:12:15;103102.50;;;2.88;82.32
44920;BME280;30655;53.094;6.072;2023-01-28T02:14:45;103159.53;;;3.21;82.18
44920;BME280;30655;53.094;6.072;2023-01-28T02:17:14;103194.16;;;3.39;82.03
44920;BME280;30655;53.094;6.072;2023-01-28T02:19:45;103192.31;;;3.39;82.10
44920;BME280;30655;53.094;6.072;2023-01-28T02:22:54;103178.44;;;3.28;82.59
44920;BME280;30655;53.094;6.072;2023-01-28T02:25:36;103168.06;;;3.25;81.92
44920;BME280;30655;53.094;6.072;2023-01-28T02:28:22;103099.16;;;2.86;81.93
44920;BME280;30655;53.094;6.072;2023-01-28T02:30:58;103051.66;;;2.64;81.68
44920;BME280;30655;53.094;6.072;2023-01-28T02:33:34;103185.13;;;3.40;81.59
44920;BME280;30655;53.094;6.072;2023-01-28T02:36:08;103154.38;;;3.28;81.92
44920;BME280;30655;53.094;6.072;2023-01-28T02:38:43;103177.47;;;3.37;82.22
44920;BME280;30655;53.094;6.072;2023-01-28T02:41:16;102962.56;;;2.15;82.15
44920;BME280;30655;53.094;6.072;2023-01-28T02:43:47;103044.97;;;2.60;81.50
44920;BME280;30655;53.094;6.072;2023-01-28T02:46:32;103136.66;;;3.19;81.47
44920;BME280;30655;53.094;6.072;2023-01-28T02:49:00;103141.66;;;3.22;81.44
44920;BME280;30655;53.094;6.072;2023-01-28T02:51:44;103178.81;;;3.41;81.85
44920;BME280;30655;53.094;6.072;2023-01-28T02:54:21;103163.59;;;3.41;81.90
44920;BME280;30655;53.094;6.072;2023-01-28T02:56:59;103150.88;;;3.27;81.42
44920;BME280;30655;53.094;6.072;2023-01-28T02:59:35;103049.00;;;2.64;81.27
44920;BME280;30655;53.094;6.072;2023-01-28T03:02:09;103137.31;;;3.21;81.74
44920;BME280;30655;53.094;6.072;2023-01-28T03:04:43;103168.25;;;3.39;81.06
44920;BME280;30655;53.094;6.072;2023-01-28T03:07:13;103165.94;;;3.36;81.48
44920;BME280;30655;53.094;6.072;2023-01-28T03:09:42;103179.44;;;3.35;81.31
44920;BME280;30655;53.094;6.072;2023-01-28T03:12:15;103040.81;;;2.57;81.67
44920;BME280;30655;53.094;6.072;2023-01-28T03:14:48;103165.94;;;3.36;81.41
44920;BME280;30655;53.094;6.072;2023-01-28T03:17:20;103155.72;;;3.32;81.95
44920;BME280;30655;53.094;6.072;2023-01-28T03:19:52;103149.03;;;3.28;81.70
44920;BME280;30655;53.094;6.072;2023-01-28T03:22:21;103103.84;;;2.92;81.51
44920;BME280;30655;53.094;6.072;2023-01-28T03:24:51;103124.56;;;2.98;81.83
44920;BME280;30655;53.094;6.072;2023-01-28T03:27:25;103174.75;;;3.29;82.18
44920;BME280;30655;53.094;6.072;2023-01-28T03:29:58;103176.44;;;3.30;81.79
44920;BME280;30655;53.094;6.072;2023-01-28T03:32:27;103179.09;;;3.30;82.17
44920;BME280;30655;53.094;6.072;2023-01-28T03:34:55;103178.09;;;3.31;81.95
44920;BME280;30655;53.094;6.072;2023-01-28T03:37:21;103187.97;;;3.30;82.20
44920;BME280;30655;53.094;6.072;2023-01-28T03:39:49;103121.69;;;2.84;82.65
44920;BME280;30655;53.094;6.072;2023-01-28T03:42:15;103164.34;;;3.10;82.36
44920;BME280;30655;53.094;6.072;2023-01-28T03:44:42;103195.31;;;3.28;82.37
44920;BME280;30655;53.094;6.072;2023-01-28T03:47:11;103118.19;;;2.83;81.79
44920;BME280;30655;53.094;6.072;2023-01-28T03:49:39;103183.25;;;3.24;82.12
44920;BME280;30655;53.094;6.072;2023-01-28T03:52:07;103185.28;;;3.22;82.51
44920;BME280;30655;53.094;6.072;2023-01-28T03:54:34;103160.66;;;3.11;81.72
44920;BME280;30655;53.094;6.072;2023-01-28T03:57:01;103179.44;;;3.27;82.42
44920;BME280;30655;53.094;6.072;2023-01-28T03:59:28;103180.75;;;3.23;82.36
44920;BME280;30655;53.094;6.072;2023-01-28T04:01:55;103145.63;;;3.01;82.15
44920;BME280;30655;53.094;6.072;2023-01-28T04:04:25;103098.44;;;2.76;81.87
44920;BME280;30655;53.094;6.072;2023-01-28T04:06:53;103131.56;;;2.91;82.56
44920;BME280;30655;53.094;6.072;2023-01-28T04:09:20;103159.53;;;3.13;82.33
44920;BME280;30655;53.094;6.072;2023-01-28T04:11:48;103166.72;;;3.21;82.37
44920;BME280;30655;53.094;6.072;2023-01-28T04:14:16;103157.19;;;3.18;82.40
44920;BME280;30655;53.094;6.072;2023-01-28T04:16:44;103174.06;;;3.19;82.64
44920;BME280;30655;53.094;6.072;2023-01-28T04:19:11;103122.91;;;2.97;82.45
44920;BME280;30655;53.094;6.072;2023-01-28T04:21:40;103032.59;;;2.43;82.47
44920;BME280;30655;53.094;6.072;2023-01-28T04:24:09;103019.19;;;2.35;82.48
44920;BME280;30655;53.094;6.072;2023-01-28T04:26:36;103152.16;;;3.15;82.67
44920;BME280;30655;53.094;6.072;2023-01-28T04:29:03;103030.56;;;2.45;82.37
44920;BME280;30655;53.094;6.072;2023-01-28T04:31:32;103117.56;;;2.97;82.49
44920;BME280;30655;53.094;6.072;2023-01-28T04:33:59;103162.69;;;3.17;82.52
44920;BME280;30655;53.094;6.072;2023-01-28T04:36:26;103147.47;;;3.09;82.67
44920;BME280;30655;53.094;6.072;2023-01-28T04:38:56;103072.38;;;2.70;82.75
44920;BME280;30655;53.094;6.072;2023-01-28T04:41:23;103069.69;;;2.62;82.11
44920;BME280;30655;53.094;6.072;2023-01-28T04:43:50;103156.66;;;3.15;82.36
44920;BME280;30655;53.094;6.072;2023-01-28T04:46:17;103157.34;;;3.09;82.25
44920;BME280;30655;53.094;6.072;2023-01-28T04:48:44;103012.13;;;2.17;82.42
44920;BME280;30655;53.094;6.072;2023-01-28T04:51:11;103012.97;;;2.18;81.97
44920;BME280;30655;53.094;6.072;2023-01-28T04:53:39;103032.00;;;2.23;82.36
44920;BME280;30655;53.094;6.072;2023-01-28T04:56:08;103055.56;;;2.36;82.51
44920;BME280;30655;53.094;6.072;2023-01-28T04:58:35;103107.41;;;2.59;82.72
44920;BME280;30655;53.094;6.072;2023-01-28T05:01:02;103037.13;;;2.16;82.76
44920;BME280;30655;53.094;6.072;2023-01-28T05:03:29;103157.63;;;2.97;82.51
44920;BME280;30655;53.094;6.072;2023-01-28T05:05:56;103065.25;;;2.45;82.98
44920;BME280;30655;53.094;6.072;2023-01-28T05:08:23;103078.97;;;2.50;83.07
44920;BME280;30655;53.094;6.072;2023-01-28T05:10:50;103138.53;;;2.84;82.68
44920;BME280;30655;53.094;6.072;2023-01-28T05:13:18;103137.72;;;2.92;82.92
44920;BME280;30655;53.094;6.072;2023-01-28T05:15:50;102942.22;;;1.72;82.37
44920;BME280;30655;53.094;6.072;2023-01-28T05:18:17;103064.06;;;2.39;82.88
44920;BME280;30655;53.094;6.072;2023-01-28T05:20:44;103152.09;;;2.99;82.64
44920;BME280;30655;53.094;6.072;2023-01-28T05:23:12;103149.56;;;2.89;82.94
44920;BME280;30655;53.094;6.072;2023-01-28T05:25:39;103108.91;;;2.70;82.82
44920;BME280;30655;53.094;6.072;2023-01-28T05:28:06;103146.59;;;2.92;82.78
44920;BME280;30655;53.094;6.072;2023-01-28T05:30:36;103127.69;;;2.86;82.78
44920;BME280;30655;53.094;6.072;2023-01-28T05:33:03;103092.06;;;2.69;82.29
44920;BME280;30655;53.094;6.072;2023-01-28T05:35:31;103145.94;;;2.98;82.45
44920;BME280;30655;53.094;6.072;2023-01-28T05:37:58;103113.81;;;2.82;82.39
44920;BME280;30655;53.094;6.072;2023-01-28T05:40:25;103157.66;;;3.06;82.67
44920;BME280;30655;53.094;6.072;2023-01-28T05:42:52;103152.31;;;3.06;83.14
44920;BME280;30655;53.094;6.072;2023-01-28T05:45:20;103154.81;;;3.07;83.04
44920;BME280;30655;53.094;6.072;2023-01-28T05:47:48;103143.28;;;3.07;82.70
44920;BME280;30655;53.094;6.072;2023-01-28T05:50:15;103156.81;;;3.05;82.66
44920;BME280;30655;53.094;6.072;2023-01-28T05:52:45;103143.78;;;3.02;82.95
44920;BME280;30655;53.094;6.072;2023-01-28T05:55:13;103148.97;;;3.03;82.92
44920;BME280;30655;53.094;6.072;2023-01-28T05:57:41;103148.44;;;3.00;82.85
44920;BME280;30655;53.094;6.072;2023-01-28T06:00:10;103138.09;;;2.97;82.94
44920;BME280;30655;53.094;6.072;2023-01-28T06:02:37;103150.44;;;2.98;83.04
44920;BME280;30655;53.094;6.072;2023-01-28T06:05:07;103136.25;;;2.97;82.98
44920;BME280;30655;53.094;6.072;2023-01-28T06:07:34;103146.94;;;2.97;83.10
44920;BME280;30655;53.094;6.072;2023-01-28T06:10:02;103034.69;;;2.31;83.17
44920;BME280;30655;53.094;6.072;2023-01-28T06:12:29;103065.13;;;2.46;82.86
44920;BME280;30655;53.094;6.072;2023-01-28T06:14:57;103148.28;;;2.93;83.16
44920;BME280;30655;53.094;6.072;2023-01-28T06:17:24;103099.72;;;2.64;83.40
44920;BME280;30655;53.094;6.072;2023-01-28T06:19:51;103109.47;;;2.73;83.13
44920;BME280;30655;53.094;6.072;2023-01-28T06:22:19;103063.91;;;2.41;83.65
44920;BME280;30655;53.094;6.072;2023-01-28T06:24:46;103132.03;;;2.79;83.03
44920;BME280;30655;53.094;6.072;2023-01-28T06:27:14;103130.84;;;2.81;83.46
44920;BME280;30655;53.094;6.072;2023-01-28T06:29:41;103142.72;;;2.87;83.51
44920;BME280;30655;53.094;6.072;2023-01-28T06:32:08;102985.47;;;1.92;83.63
44920;BME280;30655;53.094;6.072;2023-01-28T06:34:35;103033.47;;;2.17;83.29
44920;BME280;30655;53.094;6.072;2023-01-28T06:37:02;102969.91;;;1.79;83.37
44920;BME280;30655;53.094;6.072;2023-01-28T06:39:34;103076.59;;;2.39;83.39
44920;BME280;30655;53.094;6.072;2023-01-28T06:42:06;103101.34;;;2.49;83.66
44920;BME280;30655;53.094;6.072;2023-01-28T06:44:36;103161.56;;;2.85;82.99
44920;BME280;30655;53.094;6.072;2023-01-28T06:47:06;103094.13;;;2.41;83.07
44920;BME280;30655;53.094;6.072;2023-01-28T06:49:34;103082.22;;;2.28;83.23
44920;BME280;30655;53.094;6.072;2023-01-28T06:52:02;103143.81;;;2.68;83.18
44920;BME280;30655;53.094;6.072;2023-01-28T06:54:31;103132.06;;;2.53;83.67
44920;BME280;30655;53.094;6.072;2023-01-28T06:57:02;103170.75;;;2.83;83.42
44920;BME280;30655;53.094;6.072;2023-01-28T06:59:30;103175.09;;;2.84;83.57
44920;BME280;30655;53.094;6.072;2023-01-28T07:01:58;103181.09;;;2.86;84.12
44920;BME280;30655;53.094;6.072;2023-01-28T07:04:28;103175.88;;;2.76;83.24
44920;BME280;30655;53.094;6.072;2023-01-28T07:06:55;103125.38;;;2.49;83.67
44920;BME280;30655;53.094;6.072;2023-01-28T07:09:22;103171.53;;;2.75;83.83
44920;BME280;30655;53.094;6.072;2023-01-28T07:11:51;103181.59;;;2.81;84.05
44920;BME280;30655;53.094;6.072;2023-01-28T07:14:18;103095.56;;;2.28;83.78
44920;BME280;30655;53.094;6.072;2023-01-28T07:16:45;103020.09;;;1.84;83.69
44920;BME280;30655;53.094;6.072;2023-01-28T07:19:13;103191.91;;;2.76;83.69
44920;BME280;30655;53.094;6.072;2023-01-28T07:21:40;103137.03;;;2.48;83.72
44920;BME280;30655;53.094;6.072;2023-01-28T07:24:07;103164.97;;;2.62;83.82
44920;BME280;30655;53.094;6.072;2023-01-28T07:26:37;103090.72;;;2.05;83.86
44920;BME280;30655;53.094;6.072;2023-01-28T07:29:05;103151.78;;;2.34;83.65
44920;BME280;30655;53.094;6.072;2023-01-28T07:31:33;103171.72;;;2.48;83.44
44920;BME280;30655;53.094;6.072;2023-01-28T07:34:00;103166.13;;;2.33;83.82
44920;BME280;30655;53.094;6.072;2023-01-28T07:36:27;103141.84;;;2.19;83.75
44920;BME280;30655;53.094;6.072;2023-01-28T07:38:54;103175.28;;;2.31;83.58
44920;BME280;30655;53.094;6.072;2023-01-28T07:41:20;103176.72;;;2.25;83.80
44920;BME280;30655;53.094;6.072;2023-01-28T07:43:48;103080.50;;;1.49;83.20
44920;BME280;30655;53.094;6.072;2023-01-28T07:46:16;103142.97;;;1.90;83.72
44920;BME280;30655;53.094;6.072;2023-01-28T07:48:43;103189.66;;;2.12;83.54
44920;BME280;30655;53.094;6.072;2023-01-28T07:51:11;103180.09;;;2.09;83.73
44920;BME280;30655;53.094;6.072;2023-01-28T07:53:38;103190.97;;;2.08;84.02
44920;BME280;30655;53.094;6.072;2023-01-28T07:56:06;103189.41;;;2.05;84.12
44920;BME280;30655;53.094;6.072;2023-01-28T07:58:33;103148.69;;;1.78;84.00
44920;BME280;30655;53.094;6.072;2023-01-28T08:01:01;103165.22;;;1.81;84.37
44920;BME280;30655;53.094;6.072;2023-01-28T08:03:31;103159.38;;;1.78;84.43
44920;BME280;30655;53.094;6.072;2023-01-28T08:05:58;103188.53;;;1.97;84.27
44920;BME280;30655;53.094;6.072;2023-01-28T08:08:25;103217.47;;;2.09;84.87
44920;BME280;30655;53.094;6.072;2023-01-28T08:10:53;103116.13;;;1.48;84.53
44920;BME280;30655;53.094;6.072;2023-01-28T08:13:20;103126.97;;;1.55;85.01
44920;BME280;30655;53.094;6.072;2023-01-28T08:15:47;103201.06;;;2.04;84.83
44920;BME280;30655;53.094;6.072;2023-01-28T08:18:15;103225.53;;;2.17;85.13
44920;BME280;30655;53.094;6.072;2023-01-28T08:20:44;103226.06;;;2.21;84.62
44920;BME280;30655;53.094;6.072;2023-01-28T08:23:13;103118.56;;;1.59;84.99
44920;BME280;30655;53.094;6.072;2023-01-28T08:25:41;103209.03;;;2.14;84.84
44920;BME280;30655;53.094;6.072;2023-01-28T08:28:08;103132.03;;;1.58;84.79
44920;BME280;30655;53.094;6.072;2023-01-28T08:30:36;103238.00;;;2.35;84.88
44920;BME280;30655;53.094;6.072;2023-01-28T08:33:04;103229.94;;;2.27;85.53
44920;BME280;30655;53.094;6.072;2023-01-28T08:35:32;103248.78;;;2.43;84.80
44920;BME280;30655;53.094;6.072;2023-01-28T08:38:05;103251.44;;;2.43;84.88
44920;BME280;30655;53.094;6.072;2023-01-28T08:40:34;103226.59;;;2.25;84.85
44920;BME280;30655;53.094;6.072;2023-01-28T08:43:01;103186.69;;;1.97;84.74
44920;BME280;30655;53.094;6.072;2023-01-28T08:45:28;103261.41;;;2.41;84.41
44920;BME280;30655;53.094;6.072;2023-01-28T08:47:56;103258.84;;;2.31;84.66
44920;BME280;30655;53.094;6.072;2023-01-28T08:50:27;103248.25;;;2.22;84.88
44920;BME280;30655;53.094;6.072;2023-01-28T08:52:56;103253.44;;;2.23;84.96
44920;BME280;30655;53.094;6.072;2023-01-28T08:55:25;103096.78;;;1.28;84.88
44920;BME280;30655;53.094;6.072;2023-01-28T08:57:52;103243.25;;;2.19;84.81
44920;BME280;30655;53.094;6.072;2023-01-28T09:00:20;103244.47;;;2.24;85.19
44920;BME280;30655;53.094;6.072;2023-01-28T09:02:50;103232.84;;;2.15;85.25
44920;BME280;30655;53.094;6.072;2023-01-28T09:05:18;103223.16;;;2.14;85.04
44920;BME280;30655;53.094;6.072;2023-01-28T09:07:45;103260.06;;;2.37;84.95
44920;BME280;30655;53.094;6.072;2023-01-28T09:10:12;103236.75;;;2.21;85.19
44920;BME280;30655;53.094;6.072;2023-01-28T09:12:41;103261.75;;;2.38;85.50
44920;BME280;30655;53.094;6.072;2023-01-28T09:15:09;103271.84;;;2.34;85.69
44920;BME280;30655;53.094;6.072;2023-01-28T09:17:37;103188.09;;;1.84;85.83
44920;BME280;30655;53.094;6.072;2023-01-28T09:20:05;103265.53;;;2.35;85.50
44920;BME280;30655;53.094;6.072;2023-01-28T09:22:32;103264.56;;;2.36;85.33
44920;BME280;30655;53.094;6.072;2023-01-28T09:24:59;103195.00;;;1.94;85.52
44920;BME280;30655;53.094;6.072;2023-01-28T09:27:27;103215.09;;;2.06;85.09
44920;BME280;30655;53.094;6.072;2023-01-28T09:29:55;103232.56;;;2.19;85.13
44920;BME280;30655;53.094;6.072;2023-01-28T09:32:22;103263.09;;;2.42;85.11
44920;BME280;30655;53.094;6.072;2023-01-28T09:34:49;103262.13;;;2.43;85.56
44920;BME280;30655;53.094;6.072;2023-01-28T09:37:16;103254.78;;;2.45;85.12
44920;BME280;30655;53.094;6.072;2023-01-28T09:39:49;103254.34;;;2.32;85.28
44920;BME280;30655;53.094;6.072;2023-01-28T09:42:44;103197.28;;;2.07;85.32
44920;BME280;30655;53.094;6.072;2023-01-28T09:45:24;103142.53;;;1.77;85.25
44920;BME280;30655;53.094;6.072;2023-01-28T09:47:56;103235.66;;;2.32;84.95
44920;BME280;30655;53.094;6.072;2023-01-28T09:50:29;103255.09;;;2.42;85.07
44920;BME280;30655;53.094;6.072;2023-01-28T09:53:52;103280.59;;;2.62;85.12
44920;BME280;30655;53.094;6.072;2023-01-28T09:56:10;103155.00;;;1.94;85.36
44920;BME280;30655;53.094;6.072;2023-01-28T09:58:40;103209.34;;;2.37;85.39
44920;BME280;30655;53.094;6.072;2023-01-28T10:01:24;103275.22;;;2.80;85.90
44920;BME280;30655;53.094;6.072;2023-01-28T10:04:02;103261.50;;;2.75;85.30
44920;BME280;30655;53.094;6.072;2023-01-28T10:06:41;103270.09;;;2.86;85.26
44920;BME280;30655;53.094;6.072;2023-01-28T10:09:20;103249.66;;;2.77;85.41
44920;BME280;30655;53.094;6.072;2023-01-28T10:12:01;103264.47;;;2.97;85.05
44920;BME280;30655;53.094;6.072;2023-01-28T10:14:48;103110.75;;;2.09;84.94
44920;BME280;30655;53.094;6.072;2023-01-28T10:17:24;103235.03;;;2.89;84.79
44920;BME280;30655;53.094;6.072;2023-01-28T10:19:56;103238.59;;;2.98;85.13
44920;BME280;30655;53.094;6.072;2023-01-28T10:22:29;103015.59;;;1.84;85.28
44920;BME280;30655;53.094;6.072;2023-01-28T10:25:03;103088.94;;;2.40;85.66
44920;BME280;30655;53.094;6.072;2023-01-28T10:27:31;103196.59;;;3.16;86.23
44920;BME280;30655;53.094;6.072;2023-01-28T10:30:01;103189.84;;;3.38;86.22
44920;BME280;30655;53.094;6.072;2023-01-28T10:32:43;103201.06;;;3.58;85.60
44920;BME280;30655;53.094;6.072;2023-01-28T10:35:12;103175.00;;;3.60;85.90
44920;BME280;30655;53.094;6.072;2023-01-28T10:37:42;103101.09;;;3.26;85.31
44920;BME280;30655;53.094;6.072;2023-01-28T10:40:13;103085.91;;;3.35;84.87
44920;BME280;30655;53.094;6.072;2023-01-28T10:42:41;103181.38;;;3.91;84.65
44920;BME280;30655;53.094;6.072;2023-01-28T10:45:16;103166.50;;;4.05;84.91
44920;BME280;30655;53.094;6.072;2023-01-28T10:47:50;103129.38;;;4.02;85.08
44920;BME280;30655;53.094;6.072;2023-01-28T10:50:22;103034.28;;;3.51;85.15
44920;BME280;30655;53.094;6.072;2023-01-28T10:52:52;103040.63;;;3.66;84.78
44920;BME280;30655;53.094;6.072;2023-01-28T10:55:20;103162.59;;;4.40;84.44
44920;BME280;30655;53.094;6.072;2023-01-28T10:57:50;103155.09;;;4.43;84.17
44920;BME280;30655;53.094;6.072;2023-01-28T11:00:23;103032.41;;;3.75;84.17
44920;BME280;30655;53.094;6.072;2023-01-28T11:02:53;103126.78;;;4.41;84.30
44920;BME280;30655;53.094;6.072;2023-01-28T11:05:22;103128.97;;;4.45;83.98
44920;BME280;30655;53.094;6.072;2023-01-28T11:08:12;103037.56;;;4.01;83.67
44920;BME280;30655;53.094;6.072;2023-01-28T11:10:40;103105.00;;;4.52;84.13
44920;BME280;30655;53.094;6.072;2023-01-28T11:13:17;103017.31;;;3.99;83.29
44920;BME280;30655;53.094;6.072;2023-01-28T11:15:49;103141.94;;;4.64;83.32
44920;BME280;30655;53.094;6.072;2023-01-28T11:18:19;103102.84;;;4.39;83.05
44920;BME280;30655;53.094;6.072;2023-01-28T11:20:51;103150.81;;;4.73;83.33
44920;BME280;30655;53.094;6.072;2023-01-28T11:23:21;103089.47;;;4.39;83.60
44920;BME280;30655;53.094;6.072;2023-01-28T11:25:58;103180.53;;;4.94;82.55
44920;BME280;30655;53.094;6.072;2023-01-28T11:28:25;103039.22;;;4.10;83.35
44920;BME280;30655;53.094;6.072;2023-01-28T11:30:55;103168.00;;;4.87;82.97
44920;BME280;30655;53.094;6.072;2023-01-28T11:33:31;103043.38;;;4.21;82.79
44920;BME280;30655;53.094;6.072;2023-01-28T11:36:05;103110.09;;;4.78;82.32
44920;BME280;30655;53.094;6.072;2023-01-28T11:38:32;103151.50;;;5.06;82.38
44920;BME280;30655;53.094;6.072;2023-01-28T11:40:59;103175.50;;;5.30;82.93
44920;BME280;30655;53.094;6.072;2023-01-28T11:43:28;103135.56;;;5.12;82.85
44920;BME280;30655;53.094;6.072;2023-01-28T11:46:04;103172.59;;;5.40;83.05
44920;BME280;30655;53.094;6.072;2023-01-28T11:48:41;103172.19;;;5.51;82.80
44920;BME280;30655;53.094;6.072;2023-01-28T11:51:23;103120.88;;;5.31;82.62
44920;BME280;30655;53.094;6.072;2023-01-28T11:54:05;103156.84;;;5.68;81.95
44920;BME280;30655;53.094;6.072;2023-01-28T11:56:48;103053.31;;;5.13;82.83
44920;BME280;30655;53.094;6.072;2023-01-28T11:59:23;103140.78;;;5.82;82.19
44920;BME280;30655;53.094;6.072;2023-01-28T12:01:56;103049.69;;;5.43;82.82
44920;BME280;30655;53.094;6.072;2023-01-28T12:04:47;103033.56;;;5.29;81.71
44920;BME280;30655;53.094;6.072;2023-01-28T12:07:25;103111.22;;;5.90;81.34
44920;BME280;30655;53.094;6.072;2023-01-28T12:09:57;103102.09;;;5.77;81.19
44920;BME280;30655;53.094;6.072;2023-01-28T12:12:51;103121.50;;;5.79;81.49
44920;BME280;30655;53.094;6.072;2023-01-28T12:18:46;103104.28;;;5.73;81.55
44920;BME280;30655;53.094;6.072;2023-01-28T12:21:26;103073.66;;;5.45;81.05
44920;BME280;30655;53.094;6.072;2023-01-28T12:24:06;103101.69;;;5.42;81.63
44920;BME280;30655;53.094;6.072;2023-01-28T12:26:46;103115.56;;;5.69;82.18
44920;BME280;30655;53.094;6.072;2023-01-28T12:29:22;103106.47;;;6.15;84.08
44920;BME280;30655;53.094;6.072;2023-01-28T12:32:02;103109.97;;;6.89;84.03
44920;BME280;30655;53.094;6.072;2023-01-28T12:34:51;103090.19;;;7.75;82.65
44920;BME280;30655;53.094;6.072;2023-01-28T12:37:31;103084.94;;;8.57;80.64
44920;BME280;30655;53.094;6.072;2023-01-28T12:40:15;103055.31;;;9.18;78.11
44920;BME280;30655;53.094;6.072;2023-01-28T12:42:52;102918.75;;;9.03;78.11
44920;BME280;30655;53.094;6.072;2023-01-28T12:45:32;103085.13;;;10.74;77.24
44920;BME280;30655;53.094;6.072;2023-01-28T12:48:11;103100.22;;;11.33;74.51
44920;BME280;30655;53.094;6.072;2023-01-28T12:50:43;103095.41;;;11.73;74.35
44920;BME280;30655;53.094;6.072;2023-01-28T12:53:20;103105.31;;;12.28;71.70
44920;BME280;30655;53.094;6.072;2023-01-28T12:55:53;103006.88;;;12.10;70.46
44920;BME280;30655;53.094;6.072;2023-01-28T12:58:27;103086.06;;;12.55;69.00
44920;BME280;30655;53.094;6.072;2023-01-28T13:01:03;103018.13;;;11.63;67.58
44920;BME280;30655;53.094;6.072;2023-01-28T13:03:37;103084.66;;;11.59;69.06
44920;BME280;30655;53.094;6.072;2023-01-28T13:06:08;103009.84;;;10.64;67.81
44920;BME280;30655;53.094;6.072;2023-01-28T13:08:41;103088.13;;;10.46;68.26
44920;BME280;30655;53.094;6.072;2023-01-28T13:11:12;103029.41;;;9.43;69.14
44920;BME280;30655;53.094;6.072;2023-01-28T13:13:41;103019.97;;;8.86;70.25
44920;BME280;30655;53.094;6.072;2023-01-28T13:16:09;103113.41;;;9.14;71.91
44920;BME280;30655;53.094;6.072;2023-01-28T13:18:43;103096.34;;;9.00;71.17
44920;BME280;30655;53.094;6.072;2023-01-28T13:21:16;103026.25;;;8.52;72.12